createdAt,value
2023-04-04T00:00:58.224Z,2.35
2023-04-04T00:03:02.239Z,2.63
2023-04-04T00:05:05.627Z,2.00
2023-04-04T00:07:08.172Z,2.20
2023-04-04T00:09:10.936Z,2.30
2023-04-04T00:11:13.854Z,2.03
2023-04-04T00:13:16.481Z,2.30
2023-04-04T00:15:19.163Z,2.65
2023-04-04T00:17:24.626Z,2.50
2023-04-04T00:19:28.543Z,2.25
2023-04-04T00:21:31.636Z,2.40
2023-04-04T00:23:34.210Z,2.60
2023-04-04T00:25:36.742Z,2.30
2023-04-04T00:27:39.282Z,2.58
2023-04-04T00:29:42.157Z,2.22
2023-04-04T00:31:44.784Z,2.10
2023-04-04T00:33:47.364Z,2.20
2023-04-04T00:35:51.301Z,2.38
2023-04-04T00:37:53.858Z,2.33
2023-04-04T00:39:56.459Z,2.13
2023-04-04T00:41:59.245Z,2.40
2023-04-04T00:44:01.889Z,2.30
2023-04-04T00:46:04.937Z,2.83
2023-04-04T00:48:07.880Z,2.58
2023-04-04T00:50:11.403Z,2.50
2023-04-04T00:52:15.388Z,2.20
2023-04-04T00:54:17.966Z,2.58
2023-04-04T00:56:20.905Z,2.42
2023-04-04T00:58:23.673Z,2.85
2023-04-04T01:00:26.577Z,2.25
2023-04-04T01:02:29.278Z,2.00
2023-04-04T01:04:32.186Z,2.40
2023-04-04T01:06:36.089Z,2.47
2023-04-04T01:08:41.374Z,2.20
2023-04-04T01:10:44.098Z,2.40
2023-04-04T01:12:46.783Z,2.72
2023-04-04T01:14:49.323Z,2.55
2023-04-04T01:16:52.553Z,2.42
2023-04-04T01:18:57.367Z,2.45
2023-04-04T01:21:02.818Z,2.60
2023-04-04T01:23:06.105Z,2.47
2023-04-04T01:25:10.528Z,2.28
2023-04-04T01:27:14.534Z,2.55
2023-04-04T01:29:17.587Z,2.20
2023-04-04T01:31:24.326Z,2.35
2023-04-04T01:33:30.323Z,2.30
2023-04-04T01:35:39.735Z,2.70
2023-04-04T01:37:55.799Z,2.10
2023-04-04T01:40:06.068Z,2.92
2023-04-04T01:42:10.283Z,2.53
2023-04-04T01:44:15.944Z,2.78
2023-04-04T01:46:18.963Z,2.20
2023-04-04T01:48:22.364Z,2.42
2023-04-04T01:50:26.034Z,2.60
2023-04-04T01:52:29.147Z,2.80
2023-04-04T01:54:33.173Z,2.33
2023-04-04T01:56:35.708Z,2.47
2023-04-04T01:58:38.295Z,2.67
2023-04-04T02:00:42.665Z,2.60
2023-04-04T02:02:45.511Z,2.60
2023-04-04T02:04:48.576Z,2.50
2023-04-04T02:06:52.504Z,2.30
2023-04-04T02:08:56.185Z,2.33
2023-04-04T02:10:59.375Z,2.08
2023-04-04T02:13:02.071Z,2.40
2023-04-04T02:15:05.107Z,2.10
2023-04-04T02:17:09.041Z,2.53
2023-04-04T02:19:11.908Z,2.15
2023-04-04T02:21:14.538Z,2.35
2023-04-04T02:23:17.069Z,2.38
2023-04-04T02:25:19.735Z,2.80
2023-04-04T02:27:22.295Z,2.15
2023-04-04T02:29:24.811Z,2.38
2023-04-04T02:31:27.365Z,2.42
2023-04-04T02:33:31.785Z,2.30
2023-04-04T02:35:34.435Z,2.78
2023-04-04T02:37:37.123Z,2.17
2023-04-04T02:39:39.665Z,2.50
2023-04-04T02:41:42.788Z,2.65
2023-04-04T02:43:45.348Z,2.88
2023-04-04T02:45:49.219Z,2.20
2023-04-04T02:47:52.829Z,2.33
2023-04-04T02:49:56.814Z,2.50
2023-04-04T02:51:59.449Z,2.33
2023-04-04T02:54:02.915Z,2.50
2023-04-04T02:56:06.032Z,2.15
2023-04-04T02:58:08.568Z,2.53
2023-04-04T03:00:12.191Z,2.80
2023-04-04T03:02:14.861Z,2.85
2023-04-04T03:04:19.425Z,2.60
2023-04-04T03:06:23.484Z,2.58
2023-04-04T03:08:26.195Z,3.13
2023-04-04T03:10:30.780Z,3.22
2023-04-04T03:12:33.357Z,3.70
2023-04-04T03:14:35.909Z,3.15
2023-04-04T03:16:38.823Z,3.00
2023-04-04T03:18:41.684Z,2.92
2023-04-04T03:20:44.226Z,3.15
2023-04-04T03:22:48.204Z,3.08
2023-04-04T03:24:50.842Z,3.10
2023-04-04T03:26:53.378Z,3.50
2023-04-04T03:28:56.098Z,3.38
2023-04-04T03:30:58.728Z,2.67
2023-04-04T03:33:05.006Z,2.53
2023-04-04T03:35:08.317Z,2.80
2023-04-04T03:37:10.877Z,3.50
2023-04-04T03:39:14.769Z,2.50
2023-04-04T03:41:17.324Z,2.60
2023-04-04T03:43:19.862Z,3.05
2023-04-04T03:45:22.519Z,3.05
2023-04-04T03:47:25.752Z,3.03
2023-04-04T03:49:28.337Z,2.85
2023-04-04T03:51:31.632Z,3.40
2023-04-04T03:53:35.646Z,3.30
2023-04-04T03:55:41.735Z,2.67
2023-04-04T03:57:44.364Z,2.97
2023-04-04T03:59:47.045Z,3.20
2023-04-04T04:01:49.759Z,3.13
2023-04-04T04:03:52.467Z,3.25
2023-04-04T04:05:55.353Z,4.07
2023-04-04T04:07:57.902Z,3.50
2023-04-04T04:10:00.580Z,3.35
2023-04-04T04:12:04.784Z,3.00
2023-04-04T04:14:07.326Z,3.15
2023-04-04T04:16:09.963Z,3.00
2023-04-04T04:18:12.548Z,3.50
2023-04-04T04:20:15.137Z,3.45
2023-04-04T04:22:17.713Z,2.95
2023-04-04T04:24:20.352Z,3.30
2023-04-04T04:26:22.882Z,3.35
2023-04-04T04:28:33.227Z,4.05
2023-04-04T04:30:36.930Z,3.53
2023-04-04T04:32:39.519Z,3.30
2023-04-04T04:34:42.080Z,3.58
2023-04-04T04:36:44.610Z,3.67
2023-04-04T04:38:47.166Z,3.33
2023-04-04T04:40:49.722Z,3.10
2023-04-04T04:42:53.277Z,3.33
2023-04-04T04:44:57.459Z,3.33
2023-04-04T04:47:00.157Z,3.13
2023-04-04T04:49:02.826Z,2.72
2023-04-04T04:51:05.818Z,3.17
2023-04-04T04:53:08.515Z,3.20
2023-04-04T04:55:11.913Z,3.53
2023-04-04T04:57:14.493Z,3.20
2023-04-04T04:59:17.087Z,3.30
2023-04-04T05:01:21.327Z,3.45
2023-04-04T05:03:23.987Z,3.78
2023-04-04T05:05:26.544Z,3.78
2023-04-04T05:07:29.083Z,4.25
2023-04-04T05:09:31.612Z,4.18
2023-04-04T05:11:34.174Z,3.95
2023-04-04T05:13:37.370Z,4.38
2023-04-04T05:15:39.965Z,4.10
2023-04-04T05:17:43.870Z,3.85
2023-04-04T05:19:46.602Z,4.05
2023-04-04T05:21:49.221Z,3.90
2023-04-04T05:23:51.816Z,4.13
2023-04-04T05:25:54.404Z,3.58
2023-04-04T05:27:58.514Z,4.50
2023-04-04T05:30:01.397Z,4.22
2023-04-04T05:32:04.043Z,4.65
2023-04-04T05:34:08.919Z,4.18
2023-04-04T05:36:12.956Z,3.65
2023-04-04T05:38:15.570Z,3.58
2023-04-04T05:40:19.251Z,4.50
2023-04-04T05:42:21.915Z,3.50
2023-04-04T05:44:24.488Z,4.10
2023-04-04T05:46:27.056Z,4.05
2023-04-04T05:48:29.612Z,3.72
2023-04-04T05:50:33.534Z,4.22
2023-04-04T05:52:36.153Z,4.07
2023-04-04T05:54:38.712Z,3.83
2023-04-04T05:56:42.036Z,3.80
2023-04-04T05:58:46.324Z,3.97
2023-04-04T06:00:49.001Z,3.50
2023-04-04T06:02:53.390Z,3.78
2023-04-04T06:04:56.085Z,3.70
2023-04-04T06:07:00.828Z,4.22
2023-04-04T06:09:03.390Z,3.35
2023-04-04T06:11:06.033Z,3.47
2023-04-04T06:13:08.645Z,4.00
2023-04-04T06:15:11.748Z,3.85
2023-04-04T06:17:14.364Z,4.25
2023-04-04T06:19:17.340Z,4.05
2023-04-04T06:21:19.886Z,4.47
2023-04-04T06:23:23.893Z,4.85
2023-04-04T06:25:27.257Z,4.25
2023-04-04T06:27:29.803Z,4.28
2023-04-04T06:29:32.351Z,4.13
2023-04-04T06:31:34.981Z,4.43
2023-04-04T06:33:37.536Z,4.55
2023-04-04T06:35:40.107Z,4.32
2023-04-04T06:37:42.663Z,4.50
2023-04-04T06:39:46.548Z,4.28
2023-04-04T06:41:49.075Z,4.25
2023-04-04T06:43:51.783Z,4.50
2023-04-04T06:45:54.380Z,4.50
2023-04-04T06:47:58.522Z,4.47
2023-04-04T06:50:01.098Z,4.50
2023-04-04T06:52:03.844Z,4.20
2023-04-04T06:54:06.435Z,4.43
2023-04-04T06:56:10.370Z,4.38
2023-04-04T06:58:12.916Z,4.22
2023-04-04T07:00:16.607Z,4.30
2023-04-04T07:02:19.150Z,4.03
2023-04-04T07:04:21.707Z,4.38
2023-04-04T07:06:26.617Z,3.65
2023-04-04T07:08:35.635Z,4.40
2023-04-04T07:10:40.013Z,3.95
2023-04-04T07:12:45.060Z,4.18
2023-04-04T07:14:47.587Z,4.25
2023-04-04T07:16:50.245Z,3.40
2023-04-04T07:18:52.831Z,4.03
2023-04-04T07:20:55.455Z,4.35
2023-04-04T07:22:57.994Z,3.90
2023-04-04T07:25:00.668Z,3.92
2023-04-04T07:27:03.233Z,3.60
2023-04-04T07:29:07.305Z,3.75
2023-04-04T07:31:09.867Z,3.65
2023-04-04T07:33:12.454Z,3.28
2023-04-04T07:35:15.101Z,4.35
2023-04-04T07:37:18.635Z,4.30
2023-04-04T07:39:21.658Z,4.00
2023-04-04T07:41:24.283Z,4.57
2023-04-04T07:43:27.229Z,3.78
2023-04-04T07:45:31.135Z,3.97
2023-04-04T07:47:33.706Z,5.72
2023-04-04T07:49:36.255Z,4.15
2023-04-04T07:51:39.818Z,4.65
2023-04-04T07:53:42.414Z,3.92
2023-04-04T07:55:44.974Z,3.85
2023-04-04T07:57:48.049Z,4.20
2023-04-04T07:59:50.589Z,3.30
2023-04-04T08:01:54.587Z,3.72
2023-04-04T08:03:57.306Z,3.78
2023-04-04T08:05:59.994Z,3.33
2023-04-04T08:08:05.483Z,3.38
2023-04-04T08:10:09.760Z,3.45
2023-04-04T08:12:12.512Z,2.95
2023-04-04T08:14:15.075Z,3.72
2023-04-04T08:16:17.707Z,3.70
2023-04-04T08:18:21.947Z,3.40
2023-04-04T08:20:24.524Z,3.08
2023-04-04T08:22:27.076Z,2.78
2023-04-04T08:24:29.625Z,4.13
2023-04-04T08:26:32.235Z,3.28
2023-04-04T08:28:34.838Z,2.97
2023-04-04T08:30:37.667Z,3.13
2023-04-04T08:32:40.899Z,3.55
2023-04-04T08:34:45.028Z,3.03
2023-04-04T08:36:47.682Z,3.58
2023-04-04T08:38:50.207Z,3.40
2023-04-04T08:40:53.416Z,3.58
2023-04-04T08:42:57.687Z,3.47
2023-04-04T08:45:03.870Z,3.55
2023-04-04T08:47:09.052Z,3.45
2023-04-04T08:49:13.477Z,3.45
2023-04-04T08:51:18.631Z,3.10
2023-04-04T08:53:21.295Z,3.42
2023-04-04T08:55:24.532Z,3.55
2023-04-04T08:57:27.368Z,3.35
2023-04-04T08:59:30.069Z,3.17
2023-04-04T09:01:33.252Z,3.20
2023-04-04T09:03:37.253Z,3.38
2023-04-04T09:05:40.143Z,3.35
2023-04-04T09:07:44.970Z,3.55
2023-04-04T09:09:48.787Z,3.33
2023-04-04T09:11:52.760Z,3.40
2023-04-04T09:13:57.582Z,3.55
2023-04-04T09:16:01.999Z,3.55
2023-04-04T09:18:04.805Z,3.47
2023-04-04T09:20:41.969Z,3.35
2023-04-04T09:22:48.155Z,3.60
2023-04-04T09:24:51.984Z,3.30
2023-04-04T09:26:54.964Z,3.63
2023-04-04T09:28:57.566Z,3.63
2023-04-04T09:31:01.924Z,3.75
2023-04-04T09:33:06.823Z,3.50
2023-04-04T09:35:10.758Z,3.47
2023-04-04T09:37:17.785Z,3.35
2023-04-04T09:39:23.176Z,3.75
2023-04-04T09:41:27.340Z,3.38
2023-04-04T09:43:32.702Z,3.70
2023-04-04T09:45:39.804Z,3.30
2023-04-04T09:47:42.890Z,3.20
2023-04-04T09:49:45.846Z,3.40
2023-04-04T09:51:50.660Z,3.92
2023-04-04T09:53:53.198Z,3.88
2023-04-04T09:55:58.656Z,3.60
2023-04-04T09:58:05.832Z,3.42
2023-04-04T10:00:09.625Z,3.33
2023-04-04T10:02:12.520Z,3.70
2023-04-04T10:04:16.944Z,3.78
2023-04-04T10:06:19.547Z,4.30
2023-04-04T10:08:23.516Z,3.60
2023-04-04T10:10:28.502Z,3.60
2023-04-04T10:12:33.226Z,3.00
2023-04-04T10:14:36.464Z,3.38
2023-04-04T10:16:39.171Z,3.50
2023-04-04T10:18:41.803Z,3.60
2023-04-04T10:20:44.682Z,3.45
2023-04-04T10:22:48.207Z,3.70
2023-04-04T10:24:51.049Z,3.75
2023-04-04T10:26:55.330Z,3.63
2023-04-04T10:28:59.301Z,3.60
2023-04-04T10:31:07.382Z,3.58
2023-04-04T10:33:12.750Z,3.40
2023-04-04T10:35:15.552Z,3.58
2023-04-04T10:37:25.105Z,3.78
2023-04-04T10:39:30.868Z,3.50
2023-04-04T10:41:33.921Z,3.30
2023-04-04T10:43:41.518Z,3.80
2023-04-04T10:45:46.240Z,3.30
2023-04-04T10:47:49.377Z,3.38
2023-04-04T10:49:52.641Z,3.30
2023-04-04T10:51:57.505Z,3.13
2023-04-04T10:54:00.741Z,4.22
2023-04-04T10:56:04.071Z,3.60
2023-04-04T10:58:08.868Z,3.35
2023-04-04T11:00:14.438Z,3.60
2023-04-04T11:02:18.854Z,3.22
2023-04-04T11:04:23.428Z,4.03
2023-04-04T11:07:05.072Z,3.60
2023-04-04T11:09:08.113Z,3.42
2023-04-04T11:11:21.908Z,3.72
2023-04-04T11:13:29.084Z,3.58
2023-04-04T11:15:47.624Z,3.72
2023-04-04T11:17:58.402Z,3.80
2023-04-04T11:20:01.481Z,3.30
2023-04-04T11:22:04.117Z,3.50
2023-04-04T11:24:18.942Z,3.38
2023-04-04T11:26:38.649Z,3.70
2023-04-04T11:28:46.390Z,3.28
2023-04-04T11:30:50.211Z,3.80
2023-04-04T11:33:03.957Z,3.50
2023-04-04T11:35:13.395Z,3.80
2023-04-04T11:37:17.831Z,3.80
2023-04-04T11:39:27.314Z,3.67
2023-04-04T11:41:44.928Z,3.45
2023-04-04T11:43:51.251Z,4.55
2023-04-04T11:45:55.418Z,3.58
2023-04-04T11:47:59.473Z,4.40
2023-04-04T11:50:03.384Z,3.95
2023-04-04T11:52:10.060Z,3.47
2023-04-04T11:54:16.043Z,3.65
2023-04-04T11:56:20.742Z,3.63
2023-04-04T11:58:23.323Z,3.90
2023-04-04T12:00:30.728Z,4.22
2023-04-04T12:02:34.910Z,3.83
2023-04-04T12:04:39.850Z,5.30
2023-04-04T12:06:44.097Z,4.07
2023-04-04T12:08:48.246Z,4.70
2023-04-04T12:10:52.914Z,4.28
2023-04-04T12:12:56.764Z,3.95
2023-04-04T12:15:06.640Z,3.47
2023-04-04T12:17:14.344Z,4.20
2023-04-04T12:19:18.471Z,4.90
2023-04-04T12:21:21.395Z,4.50
2023-04-04T12:23:24.243Z,4.22
2023-04-04T12:25:33.752Z,3.95
2023-04-04T12:27:37.769Z,3.60
2023-04-04T12:29:40.574Z,3.70
2023-04-04T12:31:45.763Z,3.85
2023-04-04T12:33:48.488Z,3.67
2023-04-04T12:35:54.785Z,4.00
2023-04-04T12:37:59.519Z,3.75
2023-04-04T12:40:03.140Z,4.53
2023-04-04T12:42:07.555Z,3.95
2023-04-04T12:44:10.152Z,3.55
2023-04-04T12:46:12.691Z,4.07
2023-04-04T12:48:17.932Z,4.03
2023-04-04T12:50:23.104Z,4.03
2023-04-04T12:52:31.988Z,3.47
2023-04-04T12:54:38.678Z,4.28
2023-04-04T12:56:41.742Z,4.38
2023-04-04T12:58:47.619Z,3.65
2023-04-04T13:00:51.927Z,4.30
2023-04-04T13:02:54.682Z,4.50
2023-04-04T13:05:00.219Z,4.65
2023-04-04T13:07:03.210Z,3.72
2023-04-04T13:09:07.633Z,3.75
2023-04-04T13:11:10.174Z,3.22
2023-04-04T13:13:32.754Z,3.63
2023-04-04T13:16:00.911Z,3.80
2023-04-04T13:18:16.044Z,2.95
2023-04-04T13:20:20.863Z,3.22
2023-04-04T13:22:23.704Z,3.50
2023-04-04T13:24:26.251Z,3.38
2023-04-04T13:26:28.976Z,3.47
2023-04-04T13:28:31.941Z,3.80
2023-04-04T13:30:35.017Z,3.78
2023-04-04T13:32:38.989Z,3.28
2023-04-04T13:34:41.578Z,3.80
2023-04-04T13:36:44.313Z,3.72
2023-04-04T13:38:46.941Z,4.20
2023-04-04T13:40:49.508Z,3.22
2023-04-04T13:42:52.074Z,3.75
2023-04-04T13:44:54.659Z,3.13
2023-04-04T13:46:57.253Z,3.55
2023-04-04T13:49:01.577Z,3.15
2023-04-04T13:51:04.322Z,2.95
2023-04-04T13:53:06.922Z,3.30
2023-04-04T13:55:10.505Z,2.90
2023-04-04T13:57:13.072Z,3.60
2023-04-04T13:59:16.349Z,3.03
2023-04-04T14:01:18.963Z,3.53
2023-04-04T14:03:22.188Z,3.40
2023-04-04T14:05:26.203Z,3.30
2023-04-04T14:07:28.836Z,3.50
2023-04-04T14:09:31.374Z,3.58
2023-04-04T14:11:35.215Z,3.40
2023-04-04T14:13:37.879Z,3.70
2023-04-04T14:15:41.554Z,3.13
2023-04-04T14:17:44.353Z,3.47
2023-04-04T14:19:46.871Z,3.17
2023-04-04T14:21:51.057Z,3.22
2023-04-04T14:23:53.619Z,3.33
2023-04-04T14:25:56.171Z,3.33
2023-04-04T14:27:58.711Z,3.38
2023-04-04T14:30:01.306Z,3.05
2023-04-04T14:32:04.017Z,3.38
2023-04-04T14:34:06.738Z,3.30
2023-04-04T14:36:09.379Z,3.55
2023-04-04T14:38:13.257Z,3.20
2023-04-04T14:40:15.906Z,3.42
2023-04-04T14:42:18.441Z,3.15
2023-04-04T14:44:21.763Z,3.08
2023-04-04T14:46:24.992Z,3.45
2023-04-04T14:48:27.655Z,3.45
2023-04-04T14:50:30.269Z,3.60
2023-04-04T14:52:32.816Z,3.10
2023-04-04T14:54:39.012Z,3.30
2023-04-04T14:56:42.668Z,3.03
2023-04-04T14:58:45.262Z,3.00
2023-04-04T15:00:48.166Z,3.70
2023-04-04T15:02:51.533Z,3.20
2023-04-04T15:04:54.099Z,3.15
2023-04-04T15:07:00.702Z,3.42
2023-04-04T15:09:06.029Z,3.38
2023-04-04T15:11:10.114Z,3.10
2023-04-04T15:13:12.862Z,3.33
2023-04-04T15:15:16.138Z,3.55
2023-04-04T15:17:18.696Z,3.33
2023-04-04T15:19:21.445Z,3.60
2023-04-04T15:21:24.007Z,3.83
2023-04-04T15:23:26.594Z,3.35
2023-04-04T15:25:29.801Z,3.63
2023-04-04T15:27:33.696Z,3.67
2023-04-04T15:29:36.334Z,3.83
2023-04-04T15:31:38.991Z,3.45
2023-04-04T15:33:41.666Z,3.47
2023-04-04T15:35:44.228Z,3.20
2023-04-04T15:37:48.972Z,3.65
2023-04-04T15:39:53.859Z,3.88
2023-04-04T15:41:56.758Z,4.05
2023-04-04T15:44:00.627Z,3.75
2023-04-04T15:46:03.612Z,3.58
2023-04-04T15:48:06.516Z,3.45
2023-04-04T15:50:10.989Z,3.50
2023-04-04T15:52:13.642Z,3.90
2023-04-04T15:54:16.193Z,3.80
2023-04-04T15:56:18.757Z,3.20
2023-04-04T15:58:21.382Z,4.03
2023-04-04T16:00:28.863Z,3.00
2023-04-04T16:02:31.836Z,3.30
2023-04-04T16:04:34.868Z,3.10
2023-04-04T16:06:37.820Z,3.20
2023-04-04T16:08:43.442Z,2.97
2023-04-04T16:10:46.189Z,3.22
2023-04-04T16:12:48.727Z,3.00
2023-04-04T16:14:51.286Z,3.00
2023-04-04T16:16:55.619Z,3.45
2023-04-04T16:18:58.168Z,3.85
2023-04-04T16:21:04.105Z,3.50
2023-04-04T16:23:06.657Z,3.00
2023-04-04T16:25:09.829Z,3.10
2023-04-04T16:27:12.883Z,3.13
2023-04-04T16:29:15.708Z,3.10
2023-04-04T16:31:18.349Z,3.20
2023-04-04T16:33:23.929Z,3.13
2023-04-04T16:35:26.983Z,3.78
2023-04-04T16:37:29.603Z,3.83
2023-04-04T16:39:32.139Z,3.35
2023-04-04T16:41:35.078Z,3.20
2023-04-04T16:43:37.589Z,3.42
2023-04-04T16:45:40.180Z,3.10
2023-04-04T16:47:42.769Z,2.85
2023-04-04T16:49:47.942Z,2.95
2023-04-04T16:51:50.543Z,2.88
2023-04-04T16:53:53.152Z,3.30
2023-04-04T16:55:55.775Z,3.17
2023-04-04T16:57:59.326Z,3.10
2023-04-04T17:00:01.900Z,3.47
2023-04-04T17:02:05.322Z,3.28
2023-04-04T17:04:08.282Z,3.00
2023-04-04T17:06:12.468Z,3.58
2023-04-04T17:08:15.015Z,3.63
2023-04-04T17:10:17.563Z,3.33
2023-04-04T17:12:20.290Z,3.33
2023-04-04T17:14:22.894Z,3.78
2023-04-04T17:16:26.270Z,3.60
2023-04-04T17:18:28.921Z,3.70
2023-04-04T17:20:33.654Z,4.18
2023-04-04T17:22:38.402Z,3.40
2023-04-04T17:24:41.368Z,3.95
2023-04-04T17:26:44.124Z,4.30
2023-04-04T17:28:47.563Z,3.33
2023-04-04T17:30:50.608Z,4.03
2023-04-04T17:32:54.394Z,4.35
2023-04-04T17:34:57.071Z,3.65
2023-04-04T17:36:59.763Z,3.88
2023-04-04T17:39:03.896Z,3.42
2023-04-04T17:41:07.678Z,3.08
2023-04-04T17:43:10.381Z,2.97
2023-04-04T17:45:13.023Z,3.83
2023-04-04T17:47:16.067Z,3.33
2023-04-04T17:49:20.696Z,3.03
2023-04-04T17:51:23.390Z,3.15
2023-04-04T17:53:25.932Z,3.53
2023-04-04T17:55:30.431Z,3.30
2023-04-04T17:57:33.002Z,3.55
2023-04-04T17:59:35.615Z,4.07
2023-04-04T18:01:38.828Z,3.55
2023-04-04T18:03:41.500Z,2.85
2023-04-04T18:05:44.170Z,3.15
2023-04-04T18:07:46.760Z,3.00
2023-04-04T18:09:49.300Z,3.50
2023-04-04T18:11:53.254Z,3.58
2023-04-04T18:13:55.832Z,3.60
2023-04-04T18:15:59.285Z,3.70
2023-04-04T18:18:02.106Z,3.45
2023-04-04T18:20:05.556Z,3.70
2023-04-04T18:22:08.380Z,3.85
2023-04-04T18:24:11.829Z,3.85
2023-04-04T18:26:14.527Z,3.92
2023-04-04T18:28:18.867Z,3.97
2023-04-04T18:30:22.257Z,3.90
2023-04-04T18:32:26.301Z,3.80
2023-04-04T18:34:28.962Z,3.40
2023-04-04T18:36:31.533Z,3.55
2023-04-04T18:38:34.104Z,3.60
2023-04-04T18:40:36.642Z,3.65
2023-04-04T18:42:39.319Z,3.70
2023-04-04T18:44:43.257Z,4.00
2023-04-04T18:46:45.856Z,4.00
2023-04-04T18:48:48.423Z,4.03
2023-04-04T18:50:51.082Z,3.58
2023-04-04T18:52:54.230Z,3.72
2023-04-04T18:54:56.800Z,3.67
2023-04-04T18:57:00.577Z,3.67
2023-04-04T18:59:03.140Z,3.72
2023-04-04T19:01:07.522Z,4.15
2023-04-04T19:03:11.793Z,4.38
2023-04-04T19:05:22.720Z,3.97
2023-04-04T19:07:27.755Z,4.32
2023-04-04T19:09:32.131Z,4.15
2023-04-04T19:11:34.676Z,5.45
2023-04-04T19:13:37.411Z,3.97
2023-04-04T19:15:40.103Z,3.83
2023-04-04T19:17:44.226Z,4.15
2023-04-04T19:19:47.735Z,4.47
2023-04-04T19:21:50.568Z,4.28
2023-04-04T19:23:53.123Z,4.63
2023-04-04T19:25:56.749Z,4.30
2023-04-04T19:28:02.346Z,4.53
2023-04-04T19:30:33.917Z,4.15
2023-04-04T19:32:36.855Z,3.88
2023-04-04T19:34:41.693Z,4.53
2023-04-04T19:36:44.286Z,4.45
2023-04-04T19:38:48.571Z,4.72
2023-04-04T19:40:52.683Z,4.97
2023-04-04T19:42:55.231Z,5.03
2023-04-04T19:44:57.770Z,5.38
2023-04-04T19:47:01.059Z,6.43
2023-04-04T19:49:10.216Z,6.35
2023-04-04T19:51:38.459Z,5.60
2023-04-04T19:53:41.150Z,5.43
2023-04-04T19:55:43.752Z,5.53
2023-04-04T19:57:47.193Z,4.85
2023-04-04T19:59:58.968Z,5.50
2023-04-04T20:04:08.286Z,5.75
2023-04-04T20:06:13.010Z,6.20
2023-04-04T20:08:19.720Z,5.88
2023-04-04T20:10:38.208Z,5.85
2023-04-04T20:12:40.770Z,5.72
2023-04-04T20:14:43.311Z,6.10
2023-04-04T20:16:49.804Z,6.20
2023-04-04T20:18:53.292Z,6.13
2023-04-04T20:21:01.583Z,5.95
2023-04-04T20:23:06.919Z,6.97
2023-04-04T20:25:32.841Z,5.78
2023-04-04T20:27:36.455Z,5.53
2023-04-04T20:29:40.263Z,6.93
2023-04-04T20:31:44.967Z,6.93
2023-04-04T20:33:47.537Z,7.07
2023-04-04T20:35:50.294Z,7.10
2023-04-04T20:37:52.853Z,6.40
2023-04-04T20:39:57.035Z,6.85
2023-04-04T20:42:01.083Z,6.75
2023-04-04T20:44:03.679Z,10.68
2023-04-04T20:46:06.326Z,15.68
2023-04-04T20:48:10.246Z,26.25
2023-04-04T20:50:36.504Z,28.40
2023-04-04T20:52:39.037Z,33.13
2023-04-04T20:54:41.594Z,27.00
2023-04-04T20:56:52.949Z,22.70
2023-04-04T20:58:56.869Z,23.58
2023-04-04T21:01:00.908Z,19.95
2023-04-04T21:03:12.028Z,18.77
2023-04-04T21:05:27.153Z,23.05
2023-04-04T21:07:39.889Z,21.67
2023-04-04T21:09:42.426Z,21.90
2023-04-04T21:11:45.562Z,22.10
2023-04-04T21:13:48.269Z,21.80
2023-04-04T21:15:52.454Z,19.50
2023-04-04T21:17:55.912Z,20.35
2023-04-04T21:19:58.612Z,18.38
2023-04-04T21:22:01.150Z,17.08
2023-04-04T21:24:06.804Z,16.75
2023-04-04T21:26:11.692Z,15.90
2023-04-04T21:28:14.249Z,14.52
2023-04-04T21:30:42.313Z,14.73
2023-04-04T21:32:46.477Z,13.65
2023-04-04T21:34:49.042Z,16.85
2023-04-04T21:36:53.380Z,14.38
2023-04-04T21:38:57.890Z,12.80
2023-04-04T21:41:01.104Z,12.63
2023-04-04T21:43:03.686Z,13.65
2023-04-04T21:45:07.441Z,10.68
2023-04-04T21:47:09.963Z,10.05
2023-04-04T21:49:13.927Z,10.07
2023-04-04T21:51:16.490Z,9.18
2023-04-04T21:53:19.039Z,9.30
2023-04-04T21:55:21.879Z,9.65
2023-04-04T21:57:24.441Z,10.07
2023-04-04T21:59:27.028Z,10.43
2023-04-04T22:01:30.441Z,9.45
2023-04-04T22:03:33.125Z,10.02
2023-04-04T22:05:39.414Z,10.00
2023-04-04T22:07:42.337Z,9.82
2023-04-04T22:09:46.413Z,11.52
2023-04-04T22:11:48.970Z,10.27
2023-04-04T22:13:51.764Z,10.85
2023-04-04T22:15:58.851Z,10.35
2023-04-04T22:18:04.337Z,10.25
2023-04-04T22:20:11.076Z,10.10
2023-04-04T22:22:15.378Z,9.35
2023-04-04T22:24:18.906Z,9.43
2023-04-04T22:26:31.882Z,9.57
2023-04-04T22:28:35.846Z,8.88
2023-04-04T22:30:41.970Z,7.63
2023-04-04T22:32:45.628Z,7.65
2023-04-04T22:34:48.850Z,7.18
2023-04-04T22:36:54.652Z,7.72
2023-04-04T22:38:58.689Z,8.00
2023-04-04T22:41:01.372Z,8.55
2023-04-04T22:43:04.215Z,7.78
2023-04-04T22:45:07.788Z,9.63
2023-04-04T22:47:11.940Z,7.60
2023-04-04T22:49:16.198Z,7.63
2023-04-04T22:51:18.796Z,8.13
2023-04-04T22:53:24.616Z,7.90
2023-04-04T22:55:29.138Z,7.47
2023-04-04T22:57:31.680Z,7.32
2023-04-04T22:59:34.377Z,7.65
2023-04-04T23:01:37.022Z,7.22
2023-04-04T23:03:39.612Z,7.07
2023-04-04T23:05:42.330Z,7.93
2023-04-04T23:07:46.270Z,7.60
2023-04-04T23:09:48.829Z,7.95
2023-04-04T23:11:52.722Z,8.70
2023-04-04T23:13:56.904Z,8.30
2023-04-04T23:15:59.832Z,9.05
2023-04-04T23:18:02.555Z,8.15
2023-04-04T23:20:10.150Z,8.38
2023-04-04T23:22:12.744Z,8.32
2023-04-04T23:24:15.399Z,8.35
2023-04-04T23:26:17.950Z,6.97
2023-04-04T23:28:21.909Z,8.23
2023-04-04T23:30:25.519Z,8.90
2023-04-04T23:32:28.510Z,7.63
2023-04-04T23:34:31.217Z,7.80
2023-04-04T23:36:33.828Z,7.45
2023-04-04T23:38:36.721Z,7.70
2023-04-04T23:40:39.393Z,7.68
2023-04-04T23:42:42.108Z,6.82
2023-04-04T23:44:46.241Z,6.93
2023-04-04T23:46:49.845Z,7.68
2023-04-04T23:48:52.542Z,8.20
2023-04-04T23:50:56.625Z,8.18
2023-04-04T23:52:59.167Z,6.80
2023-04-04T23:55:01.784Z,7.10
2023-04-04T23:57:04.344Z,7.40
2023-04-04T23:59:07.381Z,7.70
